sensor_id;sensor_type;location;lat;lon;timestamp;temperature;humidity
6244;DHT22;3155;49.940;8.450;2022-08-04T00:01:03;20.10;99.90
6244;DHT22;3155;49.940;8.450;2022-08-04T00:04:00;20.20;99.90
6244;DHT22;3155;49.940;8.450;2022-08-04T00:06:33;20.30;99.90
6244;DHT22;3155;49.940;8.450;2022-08-04T00:09:16;20.40;99.90
6244;DHT22;3155;49.940;8.450;2022-08-04T00:11:48;20.40;99.90
6244;DHT22;3155;49.940;8.450;2022-08-04T00:14:15;20.50;99.90
6244;DHT22;3155;49.940;8.450;2022-08-04T00:16:49;20.40;99.90
6244;DHT22;3155;49.940;8.450;2022-08-04T00:19:29;20.40;99.90
6244;DHT22;3155;49.940;8.450;2022-08-04T00:22:03;20.30;99.90
6244;DHT22;3155;49.940;8.450;2022-08-04T00:24:33;20.20;99.90
6244;DHT22;3155;49.940;8.450;2022-08-04T00:27:01;20.20;99.90
6244;DHT22;3155;49.940;8.450;2022-08-04T00:29:28;20.20;99.90
6244;DHT22;3155;49.940;8.450;2022-08-04T00:31:56;20.30;99.90
6244;DHT22;3155;49.940;8.450;2022-08-04T00:34:27;20.40;99.90
6244;DHT22;3155;49.940;8.450;2022-08-04T00:36:56;20.50;99.90
6244;DHT22;3155;49.940;8.450;2022-08-04T00:39:24;20.60;99.90
6244;DHT22;3155;49.940;8.450;2022-08-04T00:47:10;20.70;99.90
6244;DHT22;3155;49.940;8.450;2022-08-04T00:49:52;20.80;99.90
6244;DHT22;3155;49.940;8.450;2022-08-04T00:55:43;20.90;99.90
6244;DHT22;3155;49.940;8.450;2022-08-04T01:01:09;20.90;99.90
6244;DHT22;3155;49.940;8.450;2022-08-04T01:04:09;20.90;99.90
6244;DHT22;3155;49.940;8.450;2022-08-04T01:06:57;20.80;99.90
6244;DHT22;3155;49.940;8.450;2022-08-04T01:17:27;20.70;99.90
6244;DHT22;3155;49.940;8.450;2022-08-04T01:20:05;20.80;99.90
6244;DHT22;3155;49.940;8.450;2022-08-04T01:29:14;20.80;99.90
6244;DHT22;3155;49.940;8.450;2022-08-04T01:31:46;20.80;99.90
6244;DHT22;3155;49.940;8.450;2022-08-04T01:34:15;20.70;99.90
6244;DHT22;3155;49.940;8.450;2022-08-04T01:36:59;20.70;99.90
6244;DHT22;3155;49.940;8.450;2022-08-04T01:39:34;20.70;99.90
6244;DHT22;3155;49.940;8.450;2022-08-04T01:42:08;20.70;99.90
6244;DHT22;3155;49.940;8.450;2022-08-04T01:44:38;20.70;99.90
6244;DHT22;3155;49.940;8.450;2022-08-04T01:47:08;20.70;99.90
6244;DHT22;3155;49.940;8.450;2022-08-04T01:49:37;20.50;99.90
6244;DHT22;3155;49.940;8.450;2022-08-04T01:52:09;20.20;99.90
6244;DHT22;3155;49.940;8.450;2022-08-04T01:54:37;20.10;99.90
6244;DHT22;3155;49.940;8.450;2022-08-04T01:57:06;20.00;99.90
6244;DHT22;3155;49.940;8.450;2022-08-04T01:59:58;20.00;99.90
6244;DHT22;3155;49.940;8.450;2022-08-04T02:02:25;19.90;99.90
6244;DHT22;3155;49.940;8.450;2022-08-04T02:04:52;19.80;99.90
6244;DHT22;3155;49.940;8.450;2022-08-04T02:10:42;19.50;99.90
6244;DHT22;3155;49.940;8.450;2022-08-04T02:13:26;19.30;99.90
6244;DHT22;3155;49.940;8.450;2022-08-04T02:16:05;19.20;99.90
6244;DHT22;3155;49.940;8.450;2022-08-04T02:21:19;19.00;99.90
6244;DHT22;3155;49.940;8.450;2022-08-04T02:23:50;18.90;99.90
6244;DHT22;3155;49.940;8.450;2022-08-04T02:26:21;18.90;99.90
6244;DHT22;3155;49.940;8.450;2022-08-04T02:34:07;19.00;99.90
6244;DHT22;3155;49.940;8.450;2022-08-04T02:36:41;19.20;99.90
6244;DHT22;3155;49.940;8.450;2022-08-04T02:39:10;19.30;99.90
6244;DHT22;3155;49.940;8.450;2022-08-04T02:41:39;19.50;99.90
6244;DHT22;3155;49.940;8.450;2022-08-04T02:44:07;19.60;99.90
6244;DHT22;3155;49.940;8.450;2022-08-04T02:46:37;19.60;99.90
6244;DHT22;3155;49.940;8.450;2022-08-04T02:49:07;19.60;99.90
6244;DHT22;3155;49.940;8.450;2022-08-04T02:51:43;19.60;99.90
6244;DHT22;3155;49.940;8.450;2022-08-04T02:54:11;19.50;99.90
6244;DHT22;3155;49.940;8.450;2022-08-04T02:56:50;19.40;99.90
6244;DHT22;3155;49.940;8.450;2022-08-04T02:59:22;19.20;99.90
6244;DHT22;3155;49.940;8.450;2022-08-04T03:01:54;19.10;99.90
6244;DHT22;3155;49.940;8.450;2022-08-04T03:07:52;19.10;99.90
6244;DHT22;3155;49.940;8.450;2022-08-04T03:16:14;19.30;99.90
6244;DHT22;3155;49.940;8.450;2022-08-04T03:19:02;19.30;99.90
6244;DHT22;3155;49.940;8.450;2022-08-04T03:30:17;19.60;99.90
6244;DHT22;3155;49.940;8.450;2022-08-04T03:45:04;18.80;99.90
6244;DHT22;3155;49.940;8.450;2022-08-04T03:54:13;18.60;99.90
6244;DHT22;3155;49.940;8.450;2022-08-04T03:57:17;18.70;99.90
6244;DHT22;3155;49.940;8.450;2022-08-04T04:00:05;18.90;99.90
6244;DHT22;3155;49.940;8.450;2022-08-04T04:05:39;19.10;99.90
6244;DHT22;3155;49.940;8.450;2022-08-04T04:17:29;19.20;99.90
6244;DHT22;3155;49.940;8.450;2022-08-04T04:26:02;19.40;99.90
6244;DHT22;3155;49.940;8.450;2022-08-04T04:28:55;19.40;99.90
6244;DHT22;3155;49.940;8.450;2022-08-04T04:37:34;19.60;99.90
6244;DHT22;3155;49.940;8.450;2022-08-04T04:43:22;19.70;99.90
6244;DHT22;3155;49.940;8.450;2022-08-04T04:46:20;19.80;99.90
6244;DHT22;3155;49.940;8.450;2022-08-04T04:51:22;19.80;99.90
6244;DHT22;3155;49.940;8.450;2022-08-04T04:54:03;19.90;99.90
6244;DHT22;3155;49.940;8.450;2022-08-04T04:56:44;20.00;99.90
6244;DHT22;3155;49.940;8.450;2022-08-04T04:59:15;20.10;99.90
6244;DHT22;3155;49.940;8.450;2022-08-04T05:15:42;21.10;99.90
6244;DHT22;3155;49.940;8.450;2022-08-04T05:18:15;21.40;99.90
6244;DHT22;3155;49.940;8.450;2022-08-04T05:20:50;21.80;99.90
6244;DHT22;3155;49.940;8.450;2022-08-04T05:23:25;22.20;99.90
6244;DHT22;3155;49.940;8.450;2022-08-04T05:26:05;22.60;99.90
6244;DHT22;3155;49.940;8.450;2022-08-04T05:28:42;23.00;99.90
6244;DHT22;3155;49.940;8.450;2022-08-04T05:31:14;23.30;99.90
6244;DHT22;3155;49.940;8.450;2022-08-04T05:33:54;23.70;99.90
6244;DHT22;3155;49.940;8.450;2022-08-04T05:36:25;23.90;99.90
6244;DHT22;3155;49.940;8.450;2022-08-04T05:39:11;24.20;99.90
6244;DHT22;3155;49.940;8.450;2022-08-04T05:41:41;24.60;99.90
6244;DHT22;3155;49.940;8.450;2022-08-04T05:44:15;25.20;99.90
6244;DHT22;3155;49.940;8.450;2022-08-04T05:46:47;25.80;99.90
6244;DHT22;3155;49.940;8.450;2022-08-04T05:49:26;26.30;99.90
6244;DHT22;3155;49.940;8.450;2022-08-04T05:51:55;27.00;99.90
6244;DHT22;3155;49.940;8.450;2022-08-04T05:54:24;27.40;99.90
6244;DHT22;3155;49.940;8.450;2022-08-04T05:56:52;27.60;99.90
6244;DHT22;3155;49.940;8.450;2022-08-04T05:59:20;27.50;99.90
6244;DHT22;3155;49.940;8.450;2022-08-04T06:01:54;27.30;99.90
6244;DHT22;3155;49.940;8.450;2022-08-04T06:04:42;27.40;99.90
6244;DHT22;3155;49.940;8.450;2022-08-04T06:07:12;27.60;99.90
6244;DHT22;3155;49.940;8.450;2022-08-04T06:09:40;27.70;99.90
6244;DHT22;3155;49.940;8.450;2022-08-04T06:12:17;27.90;99.90
6244;DHT22;3155;49.940;8.450;2022-08-04T06:14:47;28.50;99.90
6244;DHT22;3155;49.940;8.450;2022-08-04T06:17:23;28.90;99.80
6244;DHT22;3155;49.940;8.450;2022-08-04T06:20:13;28.90;99.50
6244;DHT22;3155;49.940;8.450;2022-08-04T06:22:52;29.10;99.90
6244;DHT22;3155;49.940;8.450;2022-08-04T06:25:23;29.60;99.10
6244;DHT22;3155;49.940;8.450;2022-08-04T06:27:53;30.00;98.80
6244;DHT22;3155;49.940;8.450;2022-08-04T06:30:22;30.40;98.60
6244;DHT22;3155;49.940;8.450;2022-08-04T06:32:53;30.90;97.70
6244;DHT22;3155;49.940;8.450;2022-08-04T06:35:31;31.30;97.00
6244;DHT22;3155;49.940;8.450;2022-08-04T06:37:58;31.60;96.50
6244;DHT22;3155;49.940;8.450;2022-08-04T06:40:27;32.00;96.40
6244;DHT22;3155;49.940;8.450;2022-08-04T06:42:59;32.30;96.10
6244;DHT22;3155;49.940;8.450;2022-08-04T06:45:26;32.30;95.70
6244;DHT22;3155;49.940;8.450;2022-08-04T06:47:54;32.30;96.00
6244;DHT22;3155;49.940;8.450;2022-08-04T06:50:22;32.50;96.00
6244;DHT22;3155;49.940;8.450;2022-08-04T06:53:10;32.70;95.50
6244;DHT22;3155;49.940;8.450;2022-08-04T06:55:39;33.10;95.10
6244;DHT22;3155;49.940;8.450;2022-08-04T06:58:07;33.50;94.90
6244;DHT22;3155;49.940;8.450;2022-08-04T07:00:35;32.40;94.40
6244;DHT22;3155;49.940;8.450;2022-08-04T07:03:02;32.70;95.50
6244;DHT22;3155;49.940;8.450;2022-08-04T07:05:31;33.10;94.60
6244;DHT22;3155;49.940;8.450;2022-08-04T07:07:59;33.60;94.10
6244;DHT22;3155;49.940;8.450;2022-08-04T07:10:27;33.80;93.70
6244;DHT22;3155;49.940;8.450;2022-08-04T07:12:58;34.10;93.50
6244;DHT22;3155;49.940;8.450;2022-08-04T07:15:26;34.20;93.30
6244;DHT22;3155;49.940;8.450;2022-08-04T07:17:54;34.10;92.80
6244;DHT22;3155;49.940;8.450;2022-08-04T07:20:31;33.80;93.40
6244;DHT22;3155;49.940;8.450;2022-08-04T07:23:03;33.50;93.00
6244;DHT22;3155;49.940;8.450;2022-08-04T07:25:35;34.20;93.10
6244;DHT22;3155;49.940;8.450;2022-08-04T07:28:24;34.70;92.40
6244;DHT22;3155;49.940;8.450;2022-08-04T07:30:52;35.30;91.80
6244;DHT22;3155;49.940;8.450;2022-08-04T07:33:20;35.30;92.80
6244;DHT22;3155;49.940;8.450;2022-08-04T07:35:54;34.90;91.70
6244;DHT22;3155;49.940;8.450;2022-08-04T07:38:37;35.00;92.00
6244;DHT22;3155;49.940;8.450;2022-08-04T07:41:19;35.60;92.00
6244;DHT22;3155;49.940;8.450;2022-08-04T07:44:03;35.80;92.00
6244;DHT22;3155;49.940;8.450;2022-08-04T07:46:31;36.00;91.70
6244;DHT22;3155;49.940;8.450;2022-08-04T07:48:59;36.50;91.80
6244;DHT22;3155;49.940;8.450;2022-08-04T07:51:27;36.70;90.70
6244;DHT22;3155;49.940;8.450;2022-08-04T07:53:55;36.20;90.50
6244;DHT22;3155;49.940;8.450;2022-08-04T07:56:25;35.90;91.30
6244;DHT22;3155;49.940;8.450;2022-08-04T07:58:53;36.20;90.80
6244;DHT22;3155;49.940;8.450;2022-08-04T08:01:21;36.10;90.70
6244;DHT22;3155;49.940;8.450;2022-08-04T08:03:49;36.10;90.70
6244;DHT22;3155;49.940;8.450;2022-08-04T08:06:16;35.50;89.90
6244;DHT22;3155;49.940;8.450;2022-08-04T08:09:00;35.00;90.30
6244;DHT22;3155;49.940;8.450;2022-08-04T08:11:39;35.10;90.70
6244;DHT22;3155;49.940;8.450;2022-08-04T08:14:26;34.70;90.30
6244;DHT22;3155;49.940;8.450;2022-08-04T08:16:53;34.40;90.10
6244;DHT22;3155;49.940;8.450;2022-08-04T08:19:20;34.20;90.90
6244;DHT22;3155;49.940;8.450;2022-08-04T08:21:48;34.40;90.30
6244;DHT22;3155;49.940;8.450;2022-08-04T08:24:26;33.70;90.30
6244;DHT22;3155;49.940;8.450;2022-08-04T08:26:56;34.30;91.00
6244;DHT22;3155;49.940;8.450;2022-08-04T08:29:24;35.00;90.60
6244;DHT22;3155;49.940;8.450;2022-08-04T08:31:51;35.30;89.20
6244;DHT22;3155;49.940;8.450;2022-08-04T08:34:31;34.90;89.80
6244;DHT22;3155;49.940;8.450;2022-08-04T08:37:04;35.30;91.20
6244;DHT22;3155;49.940;8.450;2022-08-04T08:40:03;35.90;90.00
6244;DHT22;3155;49.940;8.450;2022-08-04T08:54:32;35.50;87.10
6244;DHT22;3155;49.940;8.450;2022-08-04T08:57:13;35.10;90.20
6244;DHT22;3155;49.940;8.450;2022-08-04T09:06:13;36.50;88.90
6244;DHT22;3155;49.940;8.450;2022-08-04T09:09:12;37.00;86.20
6244;DHT22;3155;49.940;8.450;2022-08-04T09:11:49;37.10;87.40
6244;DHT22;3155;49.940;8.450;2022-08-04T09:14:31;37.30;85.50
6244;DHT22;3155;49.940;8.450;2022-08-04T09:17:04;36.70;85.20
6244;DHT22;3155;49.940;8.450;2022-08-04T09:19:43;36.60;88.20
6244;DHT22;3155;49.940;8.450;2022-08-04T09:22:49;36.20;86.00
6244;DHT22;3155;49.940;8.450;2022-08-04T09:25:21;36.50;86.50
6244;DHT22;3155;49.940;8.450;2022-08-04T09:27:52;36.70;86.40
6244;DHT22;3155;49.940;8.450;2022-08-04T09:30:31;36.90;86.30
6244;DHT22;3155;49.940;8.450;2022-08-04T09:33:17;37.20;88.30
6244;DHT22;3155;49.940;8.450;2022-08-04T09:36:27;37.30;87.00
6244;DHT22;3155;49.940;8.450;2022-08-04T09:45:25;37.50;85.60
6244;DHT22;3155;49.940;8.450;2022-08-04T09:48:15;36.30;85.50
6244;DHT22;3155;49.940;8.450;2022-08-04T09:50:42;36.80;87.40
6244;DHT22;3155;49.940;8.450;2022-08-04T09:56:13;36.80;89.00
6244;DHT22;3155;49.940;8.450;2022-08-04T09:59:03;36.90;85.50
6244;DHT22;3155;49.940;8.450;2022-08-04T10:01:34;37.10;86.50
6244;DHT22;3155;49.940;8.450;2022-08-04T10:04:05;37.30;85.70
6244;DHT22;3155;49.940;8.450;2022-08-04T10:07:14;36.80;86.20
6244;DHT22;3155;49.940;8.450;2022-08-04T10:13:20;36.70;86.50
6244;DHT22;3155;49.940;8.450;2022-08-04T10:21:18;36.10;86.90
6244;DHT22;3155;49.940;8.450;2022-08-04T10:24:14;36.90;86.60
6244;DHT22;3155;49.940;8.450;2022-08-04T10:26:52;37.30;85.70
6244;DHT22;3155;49.940;8.450;2022-08-04T10:29:31;37.30;85.70
6244;DHT22;3155;49.940;8.450;2022-08-04T10:32:11;37.60;84.80
6244;DHT22;3155;49.940;8.450;2022-08-04T10:35:00;37.00;83.50
6244;DHT22;3155;49.940;8.450;2022-08-04T10:40:45;36.50;85.20
6244;DHT22;3155;49.940;8.450;2022-08-04T10:46:04;37.10;85.20
6244;DHT22;3155;49.940;8.450;2022-08-04T10:48:50;37.10;84.80
6244;DHT22;3155;49.940;8.450;2022-08-04T10:57:31;37.10;84.60
6244;DHT22;3155;49.940;8.450;2022-08-04T11:00:10;37.10;83.90
6244;DHT22;3155;49.940;8.450;2022-08-04T11:05:48;37.60;84.70
6244;DHT22;3155;49.940;8.450;2022-08-04T11:08:32;37.50;83.70
6244;DHT22;3155;49.940;8.450;2022-08-04T11:14:10;37.50;84.50
6244;DHT22;3155;49.940;8.450;2022-08-04T11:16:48;37.00;82.40
6244;DHT22;3155;49.940;8.450;2022-08-04T11:20:06;37.10;83.20
6244;DHT22;3155;49.940;8.450;2022-08-04T11:25:49;38.10;82.40
6244;DHT22;3155;49.940;8.450;2022-08-04T11:31:37;38.90;79.50
6244;DHT22;3155;49.940;8.450;2022-08-04T11:34:23;39.30;80.50
6244;DHT22;3155;49.940;8.450;2022-08-04T11:36:56;39.70;79.40
6244;DHT22;3155;49.940;8.450;2022-08-04T11:39:35;39.40;80.00
6244;DHT22;3155;49.940;8.450;2022-08-04T11:44:51;39.80;79.20
6244;DHT22;3155;49.940;8.450;2022-08-04T11:47:27;39.40;78.10
6244;DHT22;3155;49.940;8.450;2022-08-04T11:50:08;39.40;81.30
6244;DHT22;3155;49.940;8.450;2022-08-04T11:52:39;39.60;79.40
6244;DHT22;3155;49.940;8.450;2022-08-04T11:55:09;39.30;79.40
6244;DHT22;3155;49.940;8.450;2022-08-04T11:57:37;39.60;78.40
6244;DHT22;3155;49.940;8.450;2022-08-04T12:00:11;39.50;78.50
6244;DHT22;3155;49.940;8.450;2022-08-04T12:02:59;39.20;75.50
6244;DHT22;3155;49.940;8.450;2022-08-04T12:05:31;38.70;78.50
6244;DHT22;3155;49.940;8.450;2022-08-04T12:17:02;38.90;76.30
6244;DHT22;3155;49.940;8.450;2022-08-04T12:19:52;39.40;75.90
6244;DHT22;3155;49.940;8.450;2022-08-04T12:22:40;39.20;74.70
6244;DHT22;3155;49.940;8.450;2022-08-04T12:25:12;39.00;75.40
6244;DHT22;3155;49.940;8.450;2022-08-04T12:28:05;39.10;74.20
6244;DHT22;3155;49.940;8.450;2022-08-04T12:30:37;39.70;74.50
6244;DHT22;3155;49.940;8.450;2022-08-04T12:33:37;39.90;75.70
6244;DHT22;3155;49.940;8.450;2022-08-04T12:36:30;40.30;74.80
6244;DHT22;3155;49.940;8.450;2022-08-04T12:39:08;40.30;73.90
6244;DHT22;3155;49.940;8.450;2022-08-04T12:41:41;40.10;73.90
6244;DHT22;3155;49.940;8.450;2022-08-04T12:44:12;39.80;72.90
6244;DHT22;3155;49.940;8.450;2022-08-04T12:47:01;39.70;73.30
6244;DHT22;3155;49.940;8.450;2022-08-04T12:49:50;40.00;74.10
6244;DHT22;3155;49.940;8.450;2022-08-04T12:52:27;40.00;73.10
6244;DHT22;3155;49.940;8.450;2022-08-04T12:55:16;40.20;74.10
6244;DHT22;3155;49.940;8.450;2022-08-04T12:57:44;40.60;73.60
6244;DHT22;3155;49.940;8.450;2022-08-04T13:00:22;40.90;73.10
6244;DHT22;3155;49.940;8.450;2022-08-04T13:03:11;41.20;72.40
6244;DHT22;3155;49.940;8.450;2022-08-04T13:05:40;41.10;72.10
6244;DHT22;3155;49.940;8.450;2022-08-04T13:08:09;40.50;72.20
6244;DHT22;3155;49.940;8.450;2022-08-04T13:10:39;39.90;72.60
6244;DHT22;3155;49.940;8.450;2022-08-04T13:13:18;39.40;73.40
6244;DHT22;3155;49.940;8.450;2022-08-04T13:16:06;39.80;74.40
6244;DHT22;3155;49.940;8.450;2022-08-04T13:18:40;40.40;72.20
6244;DHT22;3155;49.940;8.450;2022-08-04T13:23:49;40.70;72.70
6244;DHT22;3155;49.940;8.450;2022-08-04T13:26:45;40.70;71.80
6244;DHT22;3155;49.940;8.450;2022-08-04T13:29:24;39.70;72.80
6244;DHT22;3155;49.940;8.450;2022-08-04T13:32:17;40.00;73.40
6244;DHT22;3155;49.940;8.450;2022-08-04T13:34:47;39.70;72.20
6244;DHT22;3155;49.940;8.450;2022-08-04T13:37:34;40.10;73.60
6244;DHT22;3155;49.940;8.450;2022-08-04T13:40:06;41.00;71.50
6244;DHT22;3155;49.940;8.450;2022-08-04T13:42:35;41.50;69.40
6244;DHT22;3155;49.940;8.450;2022-08-04T13:45:04;42.10;69.10
6244;DHT22;3155;49.940;8.450;2022-08-04T13:47:33;43.10;69.00
6244;DHT22;3155;49.940;8.450;2022-08-04T13:50:05;43.20;69.70
6244;DHT22;3155;49.940;8.450;2022-08-04T13:52:38;43.80;67.60
6244;DHT22;3155;49.940;8.450;2022-08-04T13:55:07;43.30;66.30
6244;DHT22;3155;49.940;8.450;2022-08-04T13:57:44;43.20;66.80
6244;DHT22;3155;49.940;8.450;2022-08-04T14:00:12;43.40;65.80
6244;DHT22;3155;49.940;8.450;2022-08-04T14:03:02;44.00;64.90
6244;DHT22;3155;49.940;8.450;2022-08-04T14:06:27;44.20;65.80
6244;DHT22;3155;49.940;8.450;2022-08-04T14:14:24;42.30;66.20
6244;DHT22;3155;49.940;8.450;2022-08-04T14:19:25;41.70;68.60
6244;DHT22;3155;49.940;8.450;2022-08-04T14:22:01;41.70;68.40
6244;DHT22;3155;49.940;8.450;2022-08-04T14:24:28;41.20;68.90
6244;DHT22;3155;49.940;8.450;2022-08-04T14:26:59;41.10;68.30
6244;DHT22;3155;49.940;8.450;2022-08-04T14:29:35;40.90;68.40
6244;DHT22;3155;49.940;8.450;2022-08-04T14:32:05;41.40;67.90
6244;DHT22;3155;49.940;8.450;2022-08-04T14:34:41;41.20;66.30
6244;DHT22;3155;49.940;8.450;2022-08-04T14:37:13;42.50;66.30
6244;DHT22;3155;49.940;8.450;2022-08-04T14:39:51;44.00;65.80
6244;DHT22;3155;49.940;8.450;2022-08-04T14:42:45;44.60;64.70
6244;DHT22;3155;49.940;8.450;2022-08-04T14:45:29;43.30;64.90
6244;DHT22;3155;49.940;8.450;2022-08-04T14:47:57;42.20;67.10
6244;DHT22;3155;49.940;8.450;2022-08-04T14:50:44;42.00;67.80
6244;DHT22;3155;49.940;8.450;2022-08-04T14:53:22;42.80;65.90
6244;DHT22;3155;49.940;8.450;2022-08-04T14:55:54;43.70;66.10
6244;DHT22;3155;49.940;8.450;2022-08-04T14:58:23;44.80;65.50
6244;DHT22;3155;49.940;8.450;2022-08-04T15:01:06;45.70;64.10
6244;DHT22;3155;49.940;8.450;2022-08-04T15:03:44;44.20;64.50
6244;DHT22;3155;49.940;8.450;2022-08-04T15:06:28;43.20;64.50
6244;DHT22;3155;49.940;8.450;2022-08-04T15:09:03;43.70;65.00
6244;DHT22;3155;49.940;8.450;2022-08-04T15:11:30;44.00;65.00
6244;DHT22;3155;49.940;8.450;2022-08-04T15:13:57;42.40;66.40
6244;DHT22;3155;49.940;8.450;2022-08-04T15:16:27;42.30;66.70
6244;DHT22;3155;49.940;8.450;2022-08-04T15:18:58;41.80;66.80
6244;DHT22;3155;49.940;8.450;2022-08-04T15:21:27;42.40;66.50
6244;DHT22;3155;49.940;8.450;2022-08-04T15:23:56;42.50;66.50
6244;DHT22;3155;49.940;8.450;2022-08-04T15:28:57;44.00;65.60
6244;DHT22;3155;49.940;8.450;2022-08-04T15:31:26;44.00;65.80
6244;DHT22;3155;49.940;8.450;2022-08-04T15:34:14;43.60;66.40
6244;DHT22;3155;49.940;8.450;2022-08-04T15:36:55;43.00;66.80
6244;DHT22;3155;49.940;8.450;2022-08-04T15:39:26;42.90;65.80
6244;DHT22;3155;49.940;8.450;2022-08-04T15:42:14;43.50;66.00
6244;DHT22;3155;49.940;8.450;2022-08-04T15:47:17;43.30;65.30
6244;DHT22;3155;49.940;8.450;2022-08-04T15:49:44;42.00;65.80
6244;DHT22;3155;49.940;8.450;2022-08-04T15:52:13;42.80;65.70
6244;DHT22;3155;49.940;8.450;2022-08-04T15:54:53;42.50;65.80
6244;DHT22;3155;49.940;8.450;2022-08-04T15:58:02;42.60;65.60
6244;DHT22;3155;49.940;8.450;2022-08-04T16:19:31;37.20;72.30
6244;DHT22;3155;49.940;8.450;2022-08-04T16:22:02;36.70;73.40
6244;DHT22;3155;49.940;8.450;2022-08-04T16:24:34;36.50;73.40
6244;DHT22;3155;49.940;8.450;2022-08-04T16:27:06;36.50;74.00
6244;DHT22;3155;49.940;8.450;2022-08-04T16:29:37;36.90;73.50
6244;DHT22;3155;49.940;8.450;2022-08-04T16:37:26;37.00;73.10
6244;DHT22;3155;49.940;8.450;2022-08-04T16:43:15;36.60;71.20
6244;DHT22;3155;49.940;8.450;2022-08-04T16:46:02;36.60;71.70
6244;DHT22;3155;49.940;8.450;2022-08-04T16:48:34;36.40;71.90
6244;DHT22;3155;49.940;8.450;2022-08-04T16:51:11;36.40;72.00
6244;DHT22;3155;49.940;8.450;2022-08-04T16:53:44;36.40;72.50
6244;DHT22;3155;49.940;8.450;2022-08-04T16:56:31;36.30;73.20
6244;DHT22;3155;49.940;8.450;2022-08-04T16:59:08;36.10;74.20
6244;DHT22;3155;49.940;8.450;2022-08-04T17:01:36;36.10;74.20
6244;DHT22;3155;49.940;8.450;2022-08-04T17:04:03;36.00;73.10
6244;DHT22;3155;49.940;8.450;2022-08-04T17:06:38;35.90;72.40
6244;DHT22;3155;49.940;8.450;2022-08-04T17:09:12;35.70;73.30
6244;DHT22;3155;49.940;8.450;2022-08-04T17:11:41;35.80;73.10
6244;DHT22;3155;49.940;8.450;2022-08-04T17:14:23;35.80;73.50
6244;DHT22;3155;49.940;8.450;2022-08-04T17:16:52;35.80;73.40
6244;DHT22;3155;49.940;8.450;2022-08-04T17:19:19;35.80;73.90
6244;DHT22;3155;49.940;8.450;2022-08-04T17:21:54;35.70;74.20
6244;DHT22;3155;49.940;8.450;2022-08-04T17:24:28;35.70;75.10
6244;DHT22;3155;49.940;8.450;2022-08-04T17:26:56;35.60;74.80
6244;DHT22;3155;49.940;8.450;2022-08-04T17:29:26;35.40;75.40
6244;DHT22;3155;49.940;8.450;2022-08-04T17:32:23;35.20;75.40
6244;DHT22;3155;49.940;8.450;2022-08-04T17:34:52;35.00;76.50
6244;DHT22;3155;49.940;8.450;2022-08-04T17:37:21;34.90;76.70
6244;DHT22;3155;49.940;8.450;2022-08-04T17:40:13;34.70;77.00
6244;DHT22;3155;49.940;8.450;2022-08-04T17:43:04;34.60;78.00
6244;DHT22;3155;49.940;8.450;2022-08-04T17:46:13;34.50;78.20
6244;DHT22;3155;49.940;8.450;2022-08-04T17:49:01;34.30;80.40
6244;DHT22;3155;49.940;8.450;2022-08-04T17:51:33;34.10;80.20
6244;DHT22;3155;49.940;8.450;2022-08-04T17:54:31;34.10;79.70
6244;DHT22;3155;49.940;8.450;2022-08-04T17:57:18;34.00;80.50
6244;DHT22;3155;49.940;8.450;2022-08-04T17:59:51;33.90;80.90
6244;DHT22;3155;49.940;8.450;2022-08-04T18:02:27;33.70;81.40
6244;DHT22;3155;49.940;8.450;2022-08-04T18:05:00;33.60;81.90
6244;DHT22;3155;49.940;8.450;2022-08-04T18:07:38;33.40;82.00
6244;DHT22;3155;49.940;8.450;2022-08-04T18:10:39;33.20;83.50
6244;DHT22;3155;49.940;8.450;2022-08-04T18:13:23;33.00;84.90
6244;DHT22;3155;49.940;8.450;2022-08-04T18:16:05;32.80;84.10
6244;DHT22;3155;49.940;8.450;2022-08-04T18:19:09;32.60;83.60
6244;DHT22;3155;49.940;8.450;2022-08-04T18:21:37;32.40;84.30
6244;DHT22;3155;49.940;8.450;2022-08-04T18:24:25;32.20;85.00
6244;DHT22;3155;49.940;8.450;2022-08-04T18:27:02;32.00;83.80
6244;DHT22;3155;49.940;8.450;2022-08-04T18:29:33;32.00;82.30
6244;DHT22;3155;49.940;8.450;2022-08-04T18:32:05;31.90;82.00
6244;DHT22;3155;49.940;8.450;2022-08-04T18:34:35;31.90;81.80
6244;DHT22;3155;49.940;8.450;2022-08-04T18:37:20;31.90;81.60
6244;DHT22;3155;49.940;8.450;2022-08-04T18:40:09;31.90;81.10
6244;DHT22;3155;49.940;8.450;2022-08-04T18:42:56;31.80;81.80
6244;DHT22;3155;49.940;8.450;2022-08-04T18:45:25;31.70;81.80
6244;DHT22;3155;49.940;8.450;2022-08-04T18:48:04;31.70;82.10
6244;DHT22;3155;49.940;8.450;2022-08-04T18:50:50;31.50;81.90
6244;DHT22;3155;49.940;8.450;2022-08-04T18:53:38;31.30;83.00
6244;DHT22;3155;49.940;8.450;2022-08-04T18:56:21;31.20;82.40
6244;DHT22;3155;49.940;8.450;2022-08-04T18:59:01;31.20;82.70
6244;DHT22;3155;49.940;8.450;2022-08-04T19:01:30;31.10;82.40
6244;DHT22;3155;49.940;8.450;2022-08-04T19:04:17;31.00;82.70
6244;DHT22;3155;49.940;8.450;2022-08-04T19:07:03;31.00;82.60
6244;DHT22;3155;49.940;8.450;2022-08-04T19:09:50;30.80;82.70
6244;DHT22;3155;49.940;8.450;2022-08-04T19:12:22;30.70;83.00
6244;DHT22;3155;49.940;8.450;2022-08-04T19:14:56;30.70;83.20
6244;DHT22;3155;49.940;8.450;2022-08-04T19:17:34;30.60;82.90
6244;DHT22;3155;49.940;8.450;2022-08-04T19:20:21;30.50;83.10
6244;DHT22;3155;49.940;8.450;2022-08-04T19:22:51;30.50;83.40
6244;DHT22;3155;49.940;8.450;2022-08-04T19:25:38;30.40;83.10
6244;DHT22;3155;49.940;8.450;2022-08-04T19:28:27;30.30;83.40
6244;DHT22;3155;49.940;8.450;2022-08-04T19:30:57;30.10;83.60
6244;DHT22;3155;49.940;8.450;2022-08-04T19:33:34;29.90;84.20
6244;DHT22;3155;49.940;8.450;2022-08-04T19:36:22;29.60;84.80
6244;DHT22;3155;49.940;8.450;2022-08-04T19:38:58;29.40;85.40
6244;DHT22;3155;49.940;8.450;2022-08-04T19:41:27;29.20;86.00
6244;DHT22;3155;49.940;8.450;2022-08-04T19:43:56;29.00;86.20
6244;DHT22;3155;49.940;8.450;2022-08-04T19:46:23;28.90;86.50
6244;DHT22;3155;49.940;8.450;2022-08-04T19:48:54;28.80;87.80
6244;DHT22;3155;49.940;8.450;2022-08-04T19:51:41;28.60;88.70
6244;DHT22;3155;49.940;8.450;2022-08-04T19:54:09;28.50;88.70
6244;DHT22;3155;49.940;8.450;2022-08-04T19:56:49;28.50;88.40
6244;DHT22;3155;49.940;8.450;2022-08-04T19:59:16;28.50;88.50
6244;DHT22;3155;49.940;8.450;2022-08-04T20:01:42;28.40;88.60
6244;DHT22;3155;49.940;8.450;2022-08-04T20:04:12;28.40;88.80
6244;DHT22;3155;49.940;8.450;2022-08-04T20:06:42;28.40;89.40
6244;DHT22;3155;49.940;8.450;2022-08-04T20:09:10;28.30;89.40
6244;DHT22;3155;49.940;8.450;2022-08-04T20:11:52;28.30;89.50
6244;DHT22;3155;49.940;8.450;2022-08-04T20:14:19;28.40;90.00
6244;DHT22;3155;49.940;8.450;2022-08-04T20:17:02;28.30;90.10
6244;DHT22;3155;49.940;8.450;2022-08-04T20:19:36;28.30;90.20
6244;DHT22;3155;49.940;8.450;2022-08-04T20:22:03;28.30;90.30
6244;DHT22;3155;49.940;8.450;2022-08-04T20:24:34;28.30;90.60
6244;DHT22;3155;49.940;8.450;2022-08-04T20:27:16;28.30;90.70
6244;DHT22;3155;49.940;8.450;2022-08-04T20:29:46;28.30;90.80
6244;DHT22;3155;49.940;8.450;2022-08-04T20:32:25;28.20;90.90
6244;DHT22;3155;49.940;8.450;2022-08-04T20:34:54;28.20;91.00
6244;DHT22;3155;49.940;8.450;2022-08-04T20:37:23;28.10;91.10
6244;DHT22;3155;49.940;8.450;2022-08-04T20:39:57;28.10;91.70
6244;DHT22;3155;49.940;8.450;2022-08-04T20:42:28;28.00;91.50
6244;DHT22;3155;49.940;8.450;2022-08-04T20:45:00;28.00;91.80
6244;DHT22;3155;49.940;8.450;2022-08-04T20:47:27;27.90;91.90
6244;DHT22;3155;49.940;8.450;2022-08-04T20:50:03;27.90;92.20
6244;DHT22;3155;49.940;8.450;2022-08-04T20:52:34;27.90;92.40
6244;DHT22;3155;49.940;8.450;2022-08-04T20:55:04;27.90;92.50